Madison Park, Washington
Current Conditions -  °F | °C
As of 11:00 AM on Tuesday 27 Jan 2015 (Local Time) from KBFI Reporting Station
Haze Haze  
Wind Chill: 54°   Ceiling: 800
Heat Index: 54°   Visibility: 2.5mi
Dew Point: 48°   Wind: 5mph
Humidity: 82%   Direction: 150°SSE
Pressure: 30.09"   Gusts: NA
Location:  47.6326°N, 122.297°W
Report Text: KBFI 271900Z 15004KT 2 1/2SM HZ BKN008 OVC011 12/09 A3009 RMK AO2
Loading
Personal Weather Stations






























Interactive Weather Map New forecast layout! Learn more

10-Day Weather Forecast

Advertisements
Track Severe Weather on mobile